METAR stanice u blizini

 

LYBE - Beograd / Surčin, Srbija
Ažurirano: 01/12/2021 18:30
Vedro
Vedro
 Pravac vetra J
Vetar: J 13 km/h
Temperatura: 9°C
Osećaj hladnoće: 7°C
Tačka rose: 2°C
Vlažnost: 62%
Pritisak: 1009 hPa
Pregled: Vedro
Vidljivost: greater than 10 km
2021/12/01 17:30 LYBE 011730Z 18007KT CAVOK 09/02 Q1009 NOSIG
LYBT - Beograd / Batajnica, Srbija
Ažurirano: 01/12/2021 18:30
Vedro
Vedro
 Pravac vetra JJI
Vetar: JJI 13 km/h
Temperatura: 7°C
Osećaj hladnoće: 5°C
Tačka rose: 2°C
Vlažnost: 71%
Pritisak: 1009 hPa
Pregled: Vedro
Vidljivost: greater than 10 km
2021/12/01 17:30 LYBT 011730Z 15007KT CAVOK 07/02 Q1009 NOSIG
LYVR - Vršac, Srbija
Ažurirano: 01/12/2021 18:30
Vedro
Vedro
 Pravac vetra JJI
Vetar: JJI 28 km/h
Temperatura: 9°C
Osećaj hladnoće: 6°C
Tačka rose: 0°C
Vlažnost: 54%
Pritisak: 1009 hPa
Pregled: Vedro
Vidljivost: greater than 10 km
2021/12/01 17:30 LYVR 011730Z AUTO 16015KT CAVOK 09/00 Q1009
 
LYKV - Lađevci, Srbija
Ažurirano: 01/12/2021 18:30
Vedro
Vedro
 Pravac vetra varies
Vetar: varies 4 km/h
Temperatura: 5°C
Tačka rose: 0°C
Vlažnost: 70%
Pritisak: 1011 hPa
Pregled: Vedro
Vidljivost: greater than 10 km
2021/12/01 17:30 LYKV 011730Z VRB02KT CAVOK 05/M00 Q1011 NOSIG
LYNI - Niš, Srbija
Ažurirano: 01/12/2021 18:30
Vedro
Vedro
 Pravac vetra J
Vetar: J 11 km/h
Temperatura: 9°C
Osećaj hladnoće: 7°C
Tačka rose: 0°C
Vlažnost: 54%
Pritisak: 1013 hPa
Pregled: Vedro
Vidljivost: greater than 10 km
2021/12/01 17:30 LYNI 011730Z 18006KT 130V220 CAVOK 09/M00 Q1013 NOSIG
BKPR - Priština, Srbija
Ažurirano: 01/12/2021 18:30
Vedro
Vedro
 Pravac vetra JI
Vetar: JI 11 km/h
Temperatura: 5°C
Osećaj hladnoće: 2°C
Tačka rose: 0°C
Vlažnost: 70%
Pritisak: 1014 hPa
Pregled: Vedro
Vidljivost: greater than 10 km
2021/12/01 17:30 BKPR 011730Z 13006KT CAVOK 05/M00 Q1014 NOSIG
 
LHPP - Pecs / Pogany, Hungary
Ažurirano: 01/12/2021 18:15
Vedro
Vedro
 Pravac vetra JJZ
Vetar: JJZ 9 km/h
Temperatura: 7°C
Osećaj hladnoće: 6°C
Tačka rose: 2°C
Vlažnost: 71%
Pritisak: 1006 hPa
Pregled: Vedro
Vidljivost: greater than 10 km
2021/12/01 17:15 LHPP 011715Z AUTO 21005KT CAVOK 07/02 Q1006
LHUD - Szeged, Hungary
Ažurirano: 04/07/2019 01:45
NOT Current
Vedro
Vedro
 Pravac vetra S
Vetar: S 7 km/h
Temperatura: 18°C
Tačka rose: 13°C
Vlažnost: 73%
Pritisak: 1019 hPa
Pregled: Vedro
Vidljivost: greater than 10 km
2019/07/03 23:45 LHUD 032345Z 35004KT CAVOK 18/13 Q1019
LRTR - Timisoara, Romania
Ažurirano: 01/12/2021 18:30
Vedro
Vedro
 Pravac vetra IJI
Vetar: IJI 13 km/h
Temperatura: 3°C
Osećaj hladnoće: -1°C
Tačka rose: 2°C
Vlažnost: 93%
Pritisak: 1009 hPa
Pregled: Vedro
Vidljivost: greater than 10 km
2021/12/01 17:30 LRTR 011730Z 11007KT CAVOK 03/02 Q1009
 
LRCV - Craiova, Romania
Ažurirano: 01/12/2021 18:30
Vedro
Vedro
 Pravac vetra ZJZ
Vetar: ZJZ 13 km/h
Temperatura: 6°C
Osećaj hladnoće: 3°C
Tačka rose: -2°C
Vlažnost: 57%
Pritisak: 1010 hPa
Pregled: Vedro
Vidljivost: greater than 10 km
2021/12/01 17:30 LRCV 011730Z 24007KT CAVOK 06/M02 Q1010
LBSF - Sofia, Bulgaria
Ažurirano: 01/12/2021 18:30
Vedro
Vedro
 Pravac vetra I
Vetar: I 7 km/h
Temperatura: 2°C
Osećaj hladnoće: 0°C
Tačka rose: -1°C
Vlažnost: 81%
Pritisak: 1013 hPa
Pregled: Vedro
Vidljivost: greater than 10 km
2021/12/01 17:30 LBSF 011730Z 09004KT 060V120 CAVOK 02/M01 Q1013 NOSIG
LWSK - Skoplje, Makedonija
Ažurirano: 01/12/2021 18:30
Vedro
Vedro
 Pravac vetra JI
Vetar: JI 4 km/h
Temperatura: 0°C
Tačka rose: -2°C
Vlažnost: 87%
Pritisak: 1016 hPa
Pregled: Vedro
Vidljivost: greater than 10 km
2021/12/01 17:30 LWSK 011730Z 13002KT CAVOK 00/M02 Q1016 NOSIG
 
LYPG - Podgorica, Crna Gora
Ažurirano: 01/12/2021 18:30
Partly Cloudy
Partly Cloudy
 Pravac vetra SI
Vetar: SI 7 km/h
Temperatura: 5°C
Osećaj hladnoće: 3°C
Tačka rose: 0°C
Vlažnost: 70%
Pritisak: 1018 hPa
Oblaci: Partly Cloudy
Vidljivost: 10 km
Cloud details: Few Clouds 1219 m
Partly Cloudy 2134 m
2021/12/01 17:30 LYPG 011730Z 04004KT 9999 FEW040 SCT070 05/00 Q1018 NOSIG
LQSA - Sarajevo, Bosna i Hercegovina
Ažurirano: 01/12/2021 18:30
Vedro
Vedro
 Pravac vetra varies
Vetar: varies 7 km/h
Temperatura: 1°C
Osećaj hladnoće: -2°C
Tačka rose: 1°C
Vlažnost: 100%
Pritisak: 1010 hPa
Pregled: Vedro
Vidljivost: greater than 10 km
2021/12/01 17:30 LQSA 011730Z VRB04KT CAVOK 01/01 Q1010 TEMPO 15018KT
LDOS - Osijek, Hrvatksa
Ažurirano: 01/12/2021 18:30
Vedro
Vedro
 Pravac vetra JJZ
Vetar: JJZ 13 km/h
Temperatura: 6°C
Osećaj hladnoće: 3°C
Tačka rose: 3°C
Vlažnost: 81%
Pritisak: 1007 hPa
Pregled: Vedro
Vidljivost: greater than 10 km
2021/12/01 17:30 LDOS 011730Z 20007KT CAVOK 06/03 Q1007